M I D A S
Marine Information and Data Acquisition System
Tripno 1076 of the Zeeleeuw from 2006-04-26 06:45:50 to 2006-04-26 13:18:57
Back to CruiseResearch ActivitiesStationsMapUnderway DataData graphs

EquipmentUnitsComment
TimeDGPSUTC
LatitudeDGPSDM.mWGS84
LongitudeDGPSDM.mWGS84
TemperatureSBE03/SBE38deg celciusITS90
ConductivitySBE21S/mITS90
SalinitySBE21 Practical Salinity Units
ChlorophylAChelsea fluorimeterg/lCalibrated in Aceton
Missing or incorrect values are displayed as -999
Sea surface data collected by the RV Zeeleeuw from 2006-04-26 06:33:57 to 2006-04-26 13:17:11
Time Latitude Longitude Temperature Conductivity Salinity ChlorophylA
2006-04-26 06:35:01 51°13.611 2°56.04 18.3636 0.058551 0.318352 13.578956
2006-04-26 06:36:02 51°13.641 2°55.923 18.3441 0.058551 0.318398 13.578956
2006-04-26 06:37:01 51°13.693 2°55.818 13.2004 0.268987 1.562437 9.39899
2006-04-26 06:38:01 51°13.721 2°55.729 11.2625 3.448041 29.330003 9.803503
2006-04-26 06:39:01 51°13.728 2°55.72 11.1388 3.291354 28.489798 8.927059
2006-04-26 06:40:01 51°13.726 2°55.719 11.1551 3.249871 28.204543 9.095606
2006-04-26 06:41:01 51°13.746 2°55.713 11.0903 3.281353 28.566747 9.230443
2006-04-26 06:42:01 51°13.836 2°55.637 11.2231 3.236079 28.126652 9.331571
2006-04-26 06:43:01 51°13.964 2°55.546 11.0597 3.149856 27.269176 8.960768
2006-04-26 06:44:01 51°14.071 2°55.467 11.061 3.280511 28.605566 7.882067
2006-04-26 06:45:01 51°14.153 2°55.4 11.0632 3.271141 28.522537 7.949486
2006-04-26 06:46:01 51°14.243 2°55.286 11.1355 3.243028 28.23797 7.915777
2006-04-26 06:47:01 51°14.345 2°55.12 10.9931 3.233132 28.145079 8.185452
2006-04-26 06:48:01 51°14.478 2°54.934 10.8833 3.324737 29.107155 8.758512
2006-04-26 06:49:00 51°14.644 2°54.771 10.7242 3.480074 30.788998 11.354136
2006-04-26 06:50:00 51°14.827 2°54.612 10.6168 3.522943 31.282049 11.590101
2006-04-26 06:51:00 51°15.002 2°54.429 10.5658 3.52937 31.434255 10.54511
2006-04-26 06:52:00 51°15.184 2°54.279 10.524 3.532003 31.49422 13.275571
2006-04-26 06:53:00 51°15.357 2°54.087 10.4711 3.528739 31.506955 9.736084
2006-04-26 06:54:02 51°15.549 2°53.92 10.4078 3.542959 31.696205 7.74723
2006-04-26 06:55:00 51°15.729 2°53.772 10.325 3.567292 31.998189 6.5674
2006-04-26 06:56:00 51°15.914 2°53.612 10.2917 3.584042 32.234381 6.904494
2006-04-26 06:57:01 51°16.103 2°53.454 10.287 3.578459 32.193581 6.702238
2006-04-26 06:58:02 51°16.294 2°53.304 10.2687 3.577617 32.193731 6.60111
2006-04-26 06:59:00 51°16.478 2°53.169 10.2216 3.603109 32.480537 5.657247
2006-04-26 07:00:01 51°16.67 2°53.024 10.2018 3.624178 32.731794 5.4887
2006-04-26 07:01:02 51°16.858 2°52.885 10.184 3.623441 32.737507 5.657247
2006-04-26 07:02:01 51°17.038 2°52.747 10.1891 3.616173 32.67468 6.230306
2006-04-26 07:03:02 51°17.226 2°52.608 10.197 3.607218 32.584011 6.938204
2006-04-26 07:04:02 51°17.408 2°52.465 10.2317 3.587941 32.368868 6.702238
2006-04-26 07:05:00 51°17.587 2°52.335 10.2357 3.574562 32.216119 6.60111
2006-04-26 07:06:01 51°17.786 2°52.29 10.2083 3.579303 32.269342 6.735947
2006-04-26 07:07:00 51°17.978 2°52.305 10.2032 3.572772 32.223989 7.17417
2006-04-26 07:08:02 51°18.177 2°52.356 10.2095 3.560658 32.102606 8.421418
2006-04-26 07:09:02 51°18.371 2°52.403 10.2177 3.545385 31.942544 7.983195
2006-04-26 07:10:00 51°18.557 2°52.458 10.2078 3.540223 31.889473 7.915777
2006-04-26 07:11:00 51°18.747 2°52.525 10.201 3.530533 31.792531 7.74723
2006-04-26 07:12:02 51°18.943 2°52.608 10.2064 3.514628 31.644074 7.612392
2006-04-26 07:13:01 51°19.128 2°52.69 10.2147 3.499145 31.485122 7.309007
2006-04-26 07:14:02 51°19.304 2°52.827 10.2035 3.499145 31.486523 7.814648
2006-04-26 07:15:01 51°19.476 2°52.958 10.1404 3.500093 31.491788 7.949486
2006-04-26 07:16:01 51°19.651 2°53.092 10.0567 3.481662 31.399981 8.724802
2006-04-26 07:17:02 51°19.832 2°53.225 10.0346 3.476818 31.392836 8.758512
2006-04-26 07:18:00 51°20.006 2°53.349 10.0452 3.470499 31.349837 8.455127
2006-04-26 07:19:01 51°20.184 2°53.486 10.0358 3.470077 31.32669 7.983195
2006-04-26 07:20:00 51°20.36 2°53.613 10.0375 3.455122 31.200607 7.814648
2006-04-26 07:21:01 51°20.539 2°53.752 10.0517 3.454384 31.184846 7.679811
2006-04-26 07:22:00 51°20.713 2°53.883 10.0521 3.463863 31.270729 7.207879
2006-04-26 07:23:01 51°20.895 2°54.018 10.0302 3.474395 31.380486 6.702238
2006-04-26 07:24:02 51°21.075 2°54.155 9.9034 3.471552 31.358292 6.5674
2006-04-26 07:25:01 51°21.249 2°54.285 9.8163 3.474292 31.52189 6.634819
2006-04-26 07:26:00 51°21.423 2°54.413 9.8011 3.461654 31.449792 6.466272
2006-04-26 07:27:01 51°21.607 2°54.53 9.8154 3.462391 31.457226 6.297725
2006-04-26 07:28:01 51°21.796 2°54.618 9.83 3.459021 31.411924 6.264016
2006-04-26 07:29:01 51°21.987 2°54.704 9.8076 3.458389 31.404848 6.129178
2006-04-26 07:30:02 51°22.185 2°54.775 9.7967 3.462497 31.466794 6.129178
2006-04-26 07:31:02 51°22.383 2°54.835 9.8189 3.462391 31.469277 6.095469
2006-04-26 07:32:02 51°22.58 2°54.894 9.7931 3.462918 31.461119 6.02805
2006-04-26 07:33:02 51°22.775 2°54.957 9.6977 3.481245 31.694537 5.758375
2006-04-26 07:34:01 51°22.966 2°55.026 9.6544 3.496623 31.91484 5.758375
2006-04-26 07:35:00 51°23.155 2°55.098 9.5781 3.502732 32.012245 5.758375
2006-04-26 07:36:00 51°23.348 2°55.163 9.5203 3.514109 32.204319 6.803366
2006-04-26 07:37:02 51°23.547 2°55.218 9.5069 3.512108 32.221268 6.837076
2006-04-26 07:38:01 51°23.735 2°55.266 9.5155 3.50937 32.199221 6.264016
2006-04-26 07:39:00 51°23.92 2°55.32 9.5034 3.508422 32.185169 5.724665
2006-04-26 07:40:00 51°24.113 2°55.368 9.5005 3.508422 32.190293 5.353862
2006-04-26 07:41:01 51°24.306 2°55.425 9.4771 3.510318 32.222072 5.353862
2006-04-26 07:42:01 51°24.501 2°55.476 9.4474 3.514531 32.284865 5.252734
2006-04-26 07:43:02 51°24.7 2°55.536 9.4264 3.519693 32.364062 5.421281
2006-04-26 07:44:01 51°24.895 2°55.603 9.3906 3.524327 32.432103 5.421281
2006-04-26 07:45:02 51°25.098 2°55.674 9.3417 3.530121 32.526204 5.556118
2006-04-26 07:46:01 51°25.292 2°55.735 9.3034 3.536547 32.629246 5.589828
2006-04-26 07:47:01 51°25.485 2°55.793 9.2567 3.54687 32.785327 5.522409
2006-04-26 07:48:00 51°25.678 2°55.831 9.2435 3.54982 32.841203 5.117896
2006-04-26 07:49:00 51°25.872 2°55.867 9.2209 3.550452 32.864277 4.983059
2006-04-26 07:50:00 51°26.067 2°55.904 9.2082 3.551716 32.890107 4.814512
2006-04-26 07:51:02 51°26.269 2°55.937 9.197 3.550347 32.882806 4.780802
2006-04-26 07:52:00 51°26.46 2°55.957 9.2173 3.544027 32.826802 4.949349
2006-04-26 07:52:59 51°26.65 2°55.984 9.2467 3.531387 32.672727 5.151606
2006-04-26 07:54:02 51°26.854 2°56.011 9.2513 3.521801 32.55629 5.117896
2006-04-26 07:55:02 51°27.05 2°56.033 9.2346 3.518852 32.526003 5.286443
2006-04-26 07:56:02 51°27.247 2°56.053 9.2379 3.517167 32.521373 5.387571
2006-04-26 07:57:02 51°27.445 2°56.077 9.2293 3.517167 32.523611 5.320153
2006-04-26 07:58:02 51°27.645 2°56.125 9.2663 3.518326 32.524324 5.185315
2006-04-26 07:59:01 51°27.839 2°56.183 9.2782 3.52138 32.534808 5.084187
2006-04-26 08:00:00 51°28.034 2°56.241 9.2355 3.518747 32.518212 5.252734
2006-04-26 08:01:01 51°28.236 2°56.302 9.2149 3.513481 32.486489 5.252734
2006-04-26 08:02:01 51°28.437 2°56.358 9.2143 3.50853 32.454259 5.286443
2006-04-26 08:03:00 51°28.634 2°56.417 9.2351 3.510005 32.456747 5.185315
2006-04-26 08:04:01 51°28.837 2°56.481 9.2453 3.51011 32.451129 5.252734
2006-04-26 08:05:02 51°29.04 2°56.538 9.1945 3.522644 32.58063 4.91564
2006-04-26 08:06:00 51°29.229 2°56.597 9.1741 3.544448 32.842451 4.645965
2006-04-26 08:07:00 51°29.424 2°56.659 9.1608 3.542026 32.842401 4.713383
2006-04-26 08:08:01 51°29.618 2°56.738 9.1407 3.544344 32.876861 4.713383
2006-04-26 08:09:02 51°29.753 2°56.963 9.0794 3.543607 32.896497 4.747093
2006-04-26 08:10:01 51°29.893 2°57.175 9.0724 3.537708 32.873487 4.780802
2006-04-26 08:11:01 51°30.059 2°57.335 9.0654 3.534233 32.851225 4.780802
2006-04-26 08:12:01 51°30.245 2°57.444 9.0551 3.530546 32.81315 4.848221
2006-04-26 08:13:00 51°30.433 2°57.522 9.0404 3.524753 32.768441 4.747093
2006-04-26 08:14:02 51°30.635 2°57.599 9.0252 3.52233 32.750974 4.679674
2006-04-26 08:15:01 51°30.833 2°57.644 9.0213 3.518644 32.728752 4.713383
2006-04-26 08:16:01 51°31.037 2°57.605 9.0537 3.517907 32.721888 4.679674
2006-04-26 08:17:01 51°31.203 2°57.393 9.0361 3.537393 32.896003 4.578546
2006-04-26 08:18:02 51°31.359 2°57.138 9.0151 3.555405 33.105131 4.578546
2006-04-26 08:19:02 51°31.519 2°56.893 9.0179 3.558355 33.153265 4.544836
2006-04-26 08:20:01 51°31.672 2°56.668 9.0115 3.565202 33.222651 4.511127
2006-04-26 08:21:02 51°31.824 2°56.441 9.0092 3.611657 33.709066 4.308871
2006-04-26 08:22:00 51°31.971 2°56.227 9.0034 3.614606 33.740471 4.241452
2006-04-26 08:23:02 51°32.127 2°55.994 9.0195 3.608918 33.675962 4.241452
2006-04-26 08:24:02 51°32.279 2°55.766 9.021 3.604177 33.619773 4.308871
2006-04-26 08:24:59 51°32.422 2°55.547 9.0204 3.603018 33.60387 4.275161
2006-04-26 08:26:01 51°32.578 2°55.306 9.0179 3.602386 33.601194 4.241452
2006-04-26 08:27:02 51°32.732 2°55.068 8.9967 3.599963 33.58149 4.275161
2006-04-26 08:28:02 51°32.879 2°54.821 8.9502 3.601017 33.609503 4.376289
2006-04-26 08:29:00 51°33.013 2°54.568 8.9127 3.595013 33.598446 4.511127
2006-04-26 08:30:01 51°33.14 2°54.278 8.8802 3.589641 33.585387 4.477418
2006-04-26 08:31:02 51°33.254 2°53.971 8.906 3.586481 33.556398 4.34258
2006-04-26 08:32:00 51°33.327 2°53.647 8.9041 3.583848 33.519671 4.308871
2006-04-26 08:33:01 51°33.234 2°53.297 8.923 3.581425 33.493697 4.34258
2006-04-26 08:34:02 51°33.118 2°52.947 8.9057 3.585006 33.506866 4.308871
2006-04-26 08:35:01 51°33.003 2°52.611 8.9193 3.588272 33.556355 4.275161
2006-04-26 08:36:01 51°32.886 2°52.269 8.9109 3.587113 33.534978 4.275161
2006-04-26 08:37:02 51°32.768 2°51.922 8.8932 3.585744 33.530064 4.275161
2006-04-26 08:38:00 51°32.657 2°51.59 8.8912 3.589958 33.601922 4.308871
2006-04-26 08:39:02 51°32.535 2°51.236 8.8855 3.584374 33.53059 4.308871
2006-04-26 08:40:00 51°32.412 2°50.913 8.8738 3.581004 33.512623 4.308871
2006-04-26 08:41:01 51°32.287 2°50.571 8.8747 3.582479 33.531083 4.308871
2006-04-26 08:42:02 51°32.163 2°50.227 8.8946 3.584796 33.548977 4.241452
2006-04-26 08:43:02 51°32.04 2°49.893 8.9203 3.588588 33.570535 4.207742
2006-04-26 08:44:02 51°31.915 2°49.561 8.938 3.598806 33.651893 4.174033
2006-04-26 08:45:02 51°31.789 2°49.23 8.9403 3.60028 33.656316 4.174033
2006-04-26 08:46:02 51°31.665 2°48.9 8.961 3.604389 33.690453 4.140324
2006-04-26 08:47:02 51°31.543 2°48.569 8.9843 3.610709 33.736648 4.106614
2006-04-26 08:48:02 51°31.423 2°48.237 8.9893 3.618715 33.801104 4.072905
2006-04-26 08:49:02 51°31.301 2°47.909 8.9712 3.625246 33.87055 4.039195
2006-04-26 08:49:59 51°31.188 2°47.595 8.9586 3.635676 33.998644 4.039195
2006-04-26 08:51:02 51°31.063 2°47.249 8.9558 3.644104 34.096617 4.039195
2006-04-26 08:52:00 51°30.948 2°46.933 8.9419 3.648318 34.14129 4.039195
2006-04-26 08:53:02 51°30.822 2°46.598 8.918 3.653058 34.210473 4.039195
2006-04-26 08:54:01 51°30.706 2°46.278 8.8884 3.664647 34.351192 4.039195
2006-04-26 08:55:02 51°30.504 2°46.146 8.8818 3.667703 34.394239 4.039195
2006-04-26 08:56:01 51°30.342 2°46.35 8.9006 3.672865 34.461725 4.005486
2006-04-26 08:57:02 51°30.183 2°46.603 8.8816 3.676341 34.462861 4.106614
2006-04-26 08:58:00 51°30.059 2°46.868 8.8582 3.67297 34.474025 4.106614
2006-04-26 08:59:01 51°30.142 2°47.143 8.9776 3.670021 34.454399 4.106614
2006-04-26 09:00:02 51°30.259 2°47.414 8.9001 3.672232 34.401644 4.106614
2006-04-26 09:01:00 51°30.365 2°47.679 8.9238 3.664542 34.345315 4.039195
2006-04-26 09:02:02 51°30.479 2°47.966 8.9371 3.660433 34.296887 4.039195
2006-04-26 09:03:02 51°30.587 2°48.239 8.9425 3.654849 34.218042 4.005486
2006-04-26 09:04:01 51°30.69 2°48.519 8.9567 3.649476 34.147035 4.005486
2006-04-26 09:05:01 51°30.801 2°48.794 8.9724 3.643261 34.079951 3.971777
2006-04-26 09:06:02 51°30.913 2°49.075 8.9461 3.640943 34.048733 3.971777
2006-04-26 09:07:02 51°31.026 2°49.351 8.9557 3.634412 33.99021 3.971777
2006-04-26 09:08:02 51°31.127 2°49.638 8.9373 3.62788 33.930103 4.039195
2006-04-26 09:09:02 51°31.233 2°49.916 8.9502 3.624088 33.903986 4.039195
2006-04-26 09:10:02 51°31.337 2°50.196 8.9441 3.62335 33.886892 4.039195
2006-04-26 09:11:02 51°31.444 2°50.469 8.9279 3.616187 33.817065 4.039195
2006-04-26 09:12:01 51°31.544 2°50.746 8.9198 3.611974 33.784185 4.072905
2006-04-26 09:13:02 51°31.647 2°51.035 8.939 3.606812 33.732827 4.106614
2006-04-26 09:14:01 51°31.751 2°51.318 8.9274 3.60481 33.715912 4.106614
2006-04-26 09:15:02 51°31.854 2°51.611 8.9209 3.605021 33.737646 4.072905
2006-04-26 09:16:02 51°31.959 2°51.892 8.9007 3.607655 33.766628 4.140324
2006-04-26 09:17:02 51°32.065 2°52.175 8.927 3.607023 33.755352 4.174033
2006-04-26 09:18:02 51°32.173 2°52.457 8.919 3.604705 33.714816 4.106614
2006-04-26 09:19:02 51°32.288 2°52.735 8.9179 3.603862 33.713078 4.140324
2006-04-26 09:20:02 51°32.407 2°53.007 8.9059 3.601545 33.684282 4.106614
2006-04-26 09:21:02 51°32.519 2°53.287 8.9119 3.597121 33.666344 4.140324
2006-04-26 09:22:02 51°32.633 2°53.573 8.8607 3.594593 33.641589 4.207742
2006-04-26 09:23:02 51°32.75 2°53.85 8.9159 3.591854 33.628681 4.174033
2006-04-26 09:24:02 51°32.864 2°54.128 8.9854 3.588798 33.539291 4.174033
2006-04-26 09:25:02 51°32.982 2°54.401 9.0589 3.583636 33.409065 4.106614
2006-04-26 09:26:02 51°33.099 2°54.678 9.0559 3.582477 33.362376 4.106614
2006-04-26 09:27:02 51°33.209 2°54.967 9.0463 3.580896 33.352171 4.140324
2006-04-26 09:28:02 51°33.317 2°55.259 9.0403 3.580686 33.355377 4.106614
2006-04-26 09:29:02 51°33.433 2°55.541 9.0523 3.580159 33.353001 4.174033
2006-04-26 09:30:02 51°33.554 2°55.816 9.0387 3.580686 33.349219 4.174033
2006-04-26 09:31:02 51°33.664 2°56.105 9.0078 3.581002 33.368663 4.106614
2006-04-26 09:32:02 51°33.778 2°56.393 8.9502 3.581213 33.399381 4.174033
2006-04-26 09:33:02 51°33.9 2°56.676 8.9116 3.580055 33.436826 4.241452
2006-04-26 09:34:02 51°34.018 2°56.966 8.884 3.578897 33.46508 4.275161
2006-04-26 09:35:02 51°34.135 2°57.254 8.8659 3.577422 33.46992 4.275161
2006-04-26 09:36:02 51°34.255 2°57.548 8.8297 3.576369 33.482262 4.34258
2006-04-26 09:37:02 51°34.373 2°57.843 8.8165 3.574263 33.487542 4.308871
2006-04-26 09:38:02 51°34.462 2°58.167 8.8282 3.574789 33.493807 4.308871
2006-04-26 09:39:02 51°34.555 2°58.488 8.8155 3.576159 33.494065 4.241452
2006-04-26 09:40:02 51°34.646 2°58.817 8.7819 3.575 33.521706 4.409999
2006-04-26 09:41:02 51°34.737 2°59.147 8.7726 3.573526 33.525823 4.376289
2006-04-26 09:42:02 51°34.82 2°59.479 8.7719 3.577107 33.559282 4.275161
2006-04-26 09:43:02 51°34.915 2°59.799 8.7725 3.576686 33.562696 4.308871
2006-04-26 09:44:02 51°35.046 3°0.085 8.766 3.578055 33.571516 4.275161
2006-04-26 09:45:02 51°35.175 3°0.371 8.7751 3.582374 33.625971 4.207742
2006-04-26 09:46:02 51°35.141 3°0.694 8.7772 3.587851 33.598699 4.241452
2006-04-26 09:47:02 51°34.956 3°0.894 8.7716 3.584587 33.645147 4.241452
2006-04-26 09:48:02 51°34.751 3°0.815 8.7589 3.581848 33.614996 4.275161
2006-04-26 09:49:02 51°34.576 3°0.613 8.7541 3.578688 33.602351 4.241452
2006-04-26 09:50:02 51°34.401 3°0.41 8.7581 3.577634 33.5937 4.241452
2006-04-26 09:51:02 51°34.239 3°0.187 8.7583 3.576054 33.57251 4.275161
2006-04-26 09:52:02 51°34.083 2°59.954 8.7731 3.575422 33.555755 4.275161
2006-04-26 09:53:02 51°33.928 2°59.723 8.7808 3.574369 33.533834 4.308871
2006-04-26 09:54:02 51°33.773 2°59.491 8.7831 3.572367 33.50516 4.308871
2006-04-26 09:55:02 51°33.629 2°59.243 8.8021 3.571208 33.483729 4.376289
2006-04-26 09:56:02 51°33.489 2°58.991 8.8217 3.571103 33.468621 4.376289
2006-04-26 09:57:02 51°33.347 2°58.743 8.8406 3.570786 33.445892 4.376289
2006-04-26 09:58:02 51°33.208 2°58.495 8.8763 3.570576 33.419632 4.443708
2006-04-26 09:59:02 51°33.068 2°58.248 8.8835 3.570786 33.401667 4.409999
2006-04-26 10:00:02 51°32.93 2°58 8.9075 3.570786 33.390824 4.544836
2006-04-26 10:01:02 51°32.789 2°57.754 8.9514 3.573314 33.385372 4.477418
2006-04-26 10:02:02 51°32.649 2°57.507 8.9698 3.577211 33.393377 4.34258
2006-04-26 10:03:01 51°32.511 2°57.264 8.9933 3.579001 33.398055 4.308871
2006-04-26 10:04:02 51°32.369 2°57.013 8.9878 3.580792 33.398871 4.275161
2006-04-26 10:05:00 51°32.234 2°56.774 9.0139 3.581213 33.413281 4.34258
2006-04-26 10:06:02 51°32.087 2°56.526 9.0193 3.583004 33.411775 4.275161
2006-04-26 10:07:02 51°31.884 2°56.47 9.0591 3.586374 33.415846 4.174033
2006-04-26 10:08:02 51°31.68 2°56.62 9.0775 3.592062 33.440055 4.174033
2006-04-26 10:09:02 51°31.522 2°56.887 9.1595 3.59617 33.460218 4.106614
2006-04-26 10:10:02 51°31.42 2°57.225 9.1803 3.60091 33.447628 4.039195
2006-04-26 10:11:02 51°31.415 2°57.593 9.1897 3.601542 33.458004 4.039195
2006-04-26 10:12:02 51°31.474 2°57.954 9.1826 3.603649 33.463612 4.005486
2006-04-26 10:13:02 51°31.549 2°58.316 9.1473 3.601858 33.45896 4.039195
2006-04-26 10:14:02 51°31.626 2°58.677 9.1179 3.600699 33.45776 4.039195
2006-04-26 10:15:02 51°31.701 2°59.045 9.1017 3.597434 33.45711 4.072905
2006-04-26 10:16:02 51°31.778 2°59.411 9.1013 3.594169 33.435657 4.106614
2006-04-26 10:17:02 51°31.85 2°59.78 9.1018 3.590692 33.403544 4.140324
2006-04-26 10:18:01 51°31.927 3°0.14 9.1697 3.588059 33.371689 4.140324
2006-04-26 10:19:02 51°32.004 3°0.511 9.1558 3.577419 33.211195 4.106614
2006-04-26 10:20:02 51°32.08 3°0.878 9.1445 3.57447 33.192204 4.174033
2006-04-26 10:21:02 51°32.121 3°1.255 9.1239 3.570572 33.156547 4.140324
2006-04-26 10:22:02 51°32.165 3°1.638 9.089 3.56657 33.14039 4.207742
2006-04-26 10:23:02 51°32.207 3°2.024 9.0839 3.563305 33.136421 4.275161
2006-04-26 10:24:02 51°32.248 3°2.409 9.0666 3.564042 33.147863 4.308871
2006-04-26 10:25:00 51°32.279 3°2.784 9.0586 3.564569 33.164777 4.308871
2006-04-26 10:26:02 51°32.186 3°3.138 9.0224 3.563621 33.174864 4.34258
2006-04-26 10:27:02 51°32.047 3°3.44 9.0317 3.562252 33.166816 4.275161
2006-04-26 10:28:02 51°31.881 3°3.688 9.0502 3.555194 33.102187 4.409999
2006-04-26 10:29:02 51°31.702 3°3.901 9.0696 3.547926 32.993466 4.376289
2006-04-26 10:30:02 51°31.52 3°4.096 9.196 3.534021 32.7931 4.275161
2006-04-26 10:31:02 51°31.34 3°4.289 9.1683 3.516114 32.552366 4.275161
2006-04-26 10:32:02 51°31.158 3°4.483 9.1558 3.509584 32.510601 4.308871
2006-04-26 10:33:02 51°30.978 3°4.678 9.1549 3.505582 32.473152 4.34258
2006-04-26 10:34:02 51°30.797 3°4.874 9.1459 3.503791 32.456967 4.34258
2006-04-26 10:35:02 51°30.615 3°5.068 9.1367 3.50179 32.436377 4.34258
2006-04-26 10:36:00 51°30.438 3°5.257 9.1463 3.498104 32.419324 4.376289
2006-04-26 10:37:02 51°30.246 3°5.455 9.1632 3.49705 32.404755 4.443708
2006-04-26 10:38:02 51°30.06 3°5.651 9.1863 3.496629 32.380308 4.409999
2006-04-26 10:39:02 51°29.874 3°5.846 9.1572 3.497576 32.364019 4.443708
2006-04-26 10:40:02 51°29.689 3°6.042 9.199 3.497682 32.382952 4.477418
2006-04-26 10:41:02 51°29.504 3°6.24 9.1895 3.499051 32.36505 4.477418
2006-04-26 10:42:02 51°29.319 3°6.44 9.2071 3.49863 32.361465 4.544836
2006-04-26 10:43:02 51°29.136 3°6.644 9.2242 3.496944 32.340441 4.578546
2006-04-26 10:44:02 51°28.949 3°6.844 9.2266 3.496102 32.336982 4.679674
2006-04-26 10:45:02 51°28.757 3°7.024 9.2778 3.497049 32.312598 4.679674
2006-04-26 10:46:02 51°28.566 3°7.202 9.2674 3.498839 32.289511 4.645965
2006-04-26 10:47:02 51°28.372 3°7.371 9.2903 3.496522 32.273892 4.747093
2006-04-26 10:48:02 51°28.173 3°7.52 9.2238 3.493784 32.240653 5.050477
2006-04-26 10:49:02 51°27.973 3°7.668 9.2235 3.487675 32.216422 5.219024
2006-04-26 10:50:02 51°27.772 3°7.815 9.247 3.486938 32.216247 5.050477
2006-04-26 10:51:02 51°27.573 3°7.963 9.2379 3.489466 32.225184 5.151606
2006-04-26 10:52:02 51°27.374 3°8.113 9.2329 3.487043 32.211417 5.387571
2006-04-26 10:53:02 51°27.174 3°8.256 9.2234 3.486622 32.208573 5.657247
2006-04-26 10:54:02 51°26.969 3°8.366 9.2028 3.484516 32.20543 6.331435
2006-04-26 10:55:02 51°26.764 3°8.375 9.2055 3.482936 32.197343 6.769657
2006-04-26 10:56:02 51°26.579 3°8.262 9.2231 3.482093 32.185 7.005623
2006-04-26 10:57:02 51°26.43 3°8.069 9.2466 3.480829 32.155794 7.477554
2006-04-26 10:58:02 51°26.29 3°7.862 9.2703 3.479354 32.120041 7.983195
2006-04-26 10:59:02 51°26.151 3°7.656 9.2916 3.478828 32.092577 8.151742
2006-04-26 11:00:02 51°26.01 3°7.456 9.3295 3.479775 32.080979 8.219161
2006-04-26 11:01:02 51°25.856 3°7.283 9.4113 3.478616 32.033933 8.219161
2006-04-26 11:02:02 51°25.675 3°7.2 9.4854 3.477773 31.946466 8.050614
2006-04-26 11:03:02 51°25.474 3°7.24 9.5533 3.476719 31.872527 8.185452
2006-04-26 11:04:02 51°25.273 3°7.279 9.5938 3.47893 31.841454 8.320289
2006-04-26 11:05:02 51°25.08 3°7.419 9.6396 3.484722 31.866327 7.74723
2006-04-26 11:06:02 51°24.898 3°7.62 9.6395 3.489461 31.886258 7.443845
2006-04-26 11:07:02 51°24.757 3°7.901 9.641 3.489145 31.88233 7.309007
2006-04-26 11:08:02 51°24.786 3°8.276 9.6659 3.488935 31.878748 6.971913
2006-04-26 11:09:02 51°24.84 3°8.658 9.657 3.490409 31.874216 7.309007
2006-04-26 11:10:02 51°24.881 3°9.044 9.6467 3.486301 31.844103 7.780939
2006-04-26 11:11:02 51°24.921 3°9.433 9.6238 3.481773 31.810423 7.882067
2006-04-26 11:12:02 51°24.951 3°9.82 9.623 3.47935 31.792334 7.983195
2006-04-26 11:13:02 51°24.989 3°10.203 9.6157 3.4744 31.748597 8.118033
2006-04-26 11:14:02 51°25.012 3°10.59 9.6014 3.476928 31.775681 8.252871
2006-04-26 11:15:02 51°25.044 3°10.973 9.621 3.477033 31.785394 8.556255
2006-04-26 11:16:02 51°25.04 3°11.358 9.6239 3.478402 31.783438 8.387708
2006-04-26 11:17:02 51°25.035 3°11.742 9.6328 3.478508 31.785227 8.320289
2006-04-26 11:18:02 51°25.025 3°12.124 9.648 3.474821 31.736329 8.623674
2006-04-26 11:19:02 51°25.031 3°12.507 9.6618 3.4744 31.716973 8.589965
2006-04-26 11:20:02 51°25.018 3°12.891 9.692 3.477349 31.726033 8.387708
2006-04-26 11:21:01 51°24.984 3°13.268 9.7063 3.477138 31.707403 8.657383
2006-04-26 11:22:02 51°24.949 3°13.66 9.7195 3.477032 31.692724 8.85964
2006-04-26 11:23:02 51°24.85 3°13.957 9.887 3.478506 31.681873 8.792221
2006-04-26 11:24:02 51°24.698 3°13.816 9.7467 3.487984 31.690465 8.050614
2006-04-26 11:25:02 51°24.608 3°13.556 9.7255 3.48135 31.707049 8.185452
2006-04-26 11:26:02 51°24.548 3°13.278 9.7448 3.481245 31.718873 7.915777
2006-04-26 11:27:02 51°24.484 3°13.004 9.7659 3.480823 31.693139 7.814648
2006-04-26 11:28:02 51°24.394 3°12.75 9.7802 3.479349 31.666802 7.342717
2006-04-26 11:29:02 51°24.298 3°12.505 9.7864 3.480402 31.663159 6.769657
2006-04-26 11:30:01 51°24.201 3°12.267 9.7948 3.477979 31.634416 6.60111
2006-04-26 11:31:02 51°24.095 3°12.03 9.8541 3.476504 31.602431 6.769657
2006-04-26 11:32:02 51°23.996 3°11.789 9.8907 3.474397 31.527912 7.443845
2006-04-26 11:33:02 51°23.895 3°11.546 9.9543 3.46871 31.447299 7.74723
2006-04-26 11:34:02 51°23.794 3°11.302 9.9888 3.459756 31.29467 7.780939
2006-04-26 11:35:02 51°23.686 3°11.06 10.0177 3.449751 31.168409 8.252871
2006-04-26 11:36:02 51°23.572 3°10.824 10.046 3.449961 31.148899 8.151742
2006-04-26 11:37:02 51°23.46 3°10.587 10.0861 3.4448 31.069398 7.882067
2006-04-26 11:38:01 51°23.351 3°10.353 10.0876 3.436901 30.964069 8.016905
2006-04-26 11:39:01 51°23.239 3°10.112 10.1007 3.436269 30.96121 8.353999
2006-04-26 11:40:01 51°23.127 3°9.866 10.1245 3.429634 30.878349 8.28658
2006-04-26 11:41:01 51°23.011 3°9.621 10.1715 3.425737 30.814677 8.252871
2006-04-26 11:42:01 51°22.899 3°9.374 10.1291 3.427843 30.816455 8.623674
2006-04-26 11:43:02 51°22.784 3°9.132 10.1333 3.432266 30.881903 9.331571
2006-04-26 11:44:02 51°22.683 3°8.884 10.1472 3.428054 30.832296 9.500118
2006-04-26 11:45:02 51°22.582 3°8.638 10.1719 3.422577 30.766006 9.668665
2006-04-26 11:46:02 51°22.489 3°8.384 10.1765 3.418364 30.711006 10.073178
2006-04-26 11:47:00 51°22.405 3°8.132 10.1919 3.414994 30.669231 10.208016
2006-04-26 11:48:02 51°22.329 3°7.856 10.2559 3.409939 30.591643 10.005759
2006-04-26 11:49:02 51°22.249 3°7.594 10.2962 3.407095 30.523981 9.365281
2006-04-26 11:50:02 51°22.167 3°7.331 10.323 3.408042 30.494795 9.938341
2006-04-26 11:51:02 51°22.088 3°7.07 10.3462 3.409621 30.491536 9.837212
2006-04-26 11:52:02 51°22.014 3°6.806 10.3734 3.413518 30.501791 9.365281
2006-04-26 11:53:02 51°21.943 3°6.537 10.3587 3.414676 30.508543 9.230443
2006-04-26 11:54:02 51°21.87 3°6.267 10.327 3.414676 30.520704 9.466409
2006-04-26 11:55:02 51°21.761 3°6.033 10.2927 3.4191 30.588942 9.601247
2006-04-26 11:56:02 51°21.621 3°5.841 10.2948 3.426788 30.688368 9.736084
2006-04-26 11:57:02 51°21.484 3°5.646 10.3435 3.439005 30.795405 9.736084
2006-04-26 11:58:02 51°21.354 3°5.44 10.3706 3.438899 30.765706 9.500118
2006-04-26 11:59:02 51°21.218 3°5.233 10.3197 3.417309 30.556277 9.230443
2006-04-26 12:00:02 51°21.081 3°5.022 10.3507 3.40225 30.419115 9.129315
2006-04-26 12:01:02 51°20.946 3°4.804 10.3661 3.39909 30.366933 9.466409
2006-04-26 12:02:02 51°20.859 3°4.535 10.3593 3.39751 30.345238 9.702375
2006-04-26 12:03:02 51°20.788 3°4.25 10.3637 3.399722 30.364451 9.533828
2006-04-26 12:04:02 51°20.717 3°3.965 10.3845 3.40267 30.3876 9.466409
2006-04-26 12:05:00 51°20.647 3°3.692 10.4382 3.409515 30.415679 9.4327
2006-04-26 12:06:02 51°20.601 3°3.381 10.477 3.4112 30.412185 9.500118
2006-04-26 12:07:02 51°20.562 3°3.075 10.4366 3.414675 30.436464 9.466409
2006-04-26 12:08:02 51°20.523 3°2.766 10.4283 3.414254 30.453142 9.904631
2006-04-26 12:09:02 51°20.486 3°2.457 10.4439 3.416782 30.483532 10.241725
2006-04-26 12:10:01 51°20.452 3°2.154 10.4392 3.419098 30.486247 10.376563
2006-04-26 12:11:02 51°20.42 3°1.841 10.4051 3.41952 30.509952 11.185589
2006-04-26 12:12:02 51°20.382 3°1.533 10.3921 3.421732 30.556147 11.151879
2006-04-26 12:13:02 51°20.349 3°1.222 10.3811 3.422048 30.570095 10.54511
2006-04-26 12:14:02 51°20.311 3°0.912 10.3254 3.425945 30.611416 10.578819
2006-04-26 12:15:02 51°20.254 3°0.614 10.3435 3.428262 30.678512 10.679947
2006-04-26 12:16:02 51°20.201 3°0.315 10.3849 3.430368 30.687857 10.949623
2006-04-26 12:17:02 51°20.149 3°0.018 10.4325 3.438161 30.720284 11.556392
2006-04-26 12:18:02 51°20.093 2°59.727 10.3999 3.445006 30.752774 11.792358
2006-04-26 12:19:02 51°20.018 2°59.448 10.3772 3.451221 30.837485 11.522683
2006-04-26 12:20:02 51°19.947 2°59.163 10.3511 3.452485 30.87596 11.488973
2006-04-26 12:21:02 51°19.88 2°58.875 10.4258 3.453011 30.891441 11.859777
2006-04-26 12:22:02 51°19.814 2°58.586 10.4096 3.46765 30.964819 11.354136
2006-04-26 12:23:02 51°19.747 2°58.296 10.4054 3.477024 31.089999 11.11817
2006-04-26 12:24:02 51°19.677 2°58.008 10.4219 3.483554 31.161012 10.915913
2006-04-26 12:25:02 51°19.607 2°57.719 10.4553 3.490295 31.207932 10.646238
2006-04-26 12:26:02 51°19.536 2°57.432 10.4679 3.50167 31.302871 10.241725
2006-04-26 12:27:02 51°19.458 2°57.149 10.4367 3.522209 31.496362 9.870922
2006-04-26 12:28:02 51°19.382 2°56.862 10.421 3.530636 31.608672 10.275435
2006-04-26 12:29:02 51°19.305 2°56.576 10.4166 3.537904 31.688651 10.140597
2006-04-26 12:30:02 51°19.227 2°56.291 10.4072 3.54475 31.756072 9.803503
2006-04-26 12:31:02 51°19.153 2°56.001 10.4126 3.551702 31.828782 9.466409
2006-04-26 12:32:02 51°19.076 2°55.712 10.3843 3.560445 31.918659 9.297862
2006-04-26 12:33:02 51°19 2°55.422 10.3551 3.567187 32.00918 9.634956
2006-04-26 12:34:02 51°18.923 2°55.134 10.3206 3.57414 32.118329 9.904631
2006-04-26 12:35:02 51°18.847 2°54.845 10.2709 3.57414 32.146125 10.241725
2006-04-26 12:36:02 51°18.771 2°54.556 10.2 3.56919 32.147304 10.848494
2006-04-26 12:37:02 51°18.693 2°54.267 10.138 3.564345 32.161738 11.354136
2006-04-26 12:38:02 51°18.618 2°53.973 10.108 3.575406 32.313701 10.241725
2006-04-26 12:39:02 51°18.539 2°53.685 10.1676 3.595 32.522191 7.814648
2006-04-26 12:40:02 51°18.462 2°53.394 10.1655 3.62913 32.826839 6.196597
2006-04-26 12:41:02 51°18.383 2°53.105 10.2096 3.653465 33.048182 5.724665
2006-04-26 12:42:02 51°18.3 2°52.82 10.219 3.678433 33.282507 5.623537
2006-04-26 12:43:02 51°18.178 2°52.582 10.2038 3.695711 33.447594 5.4887
2006-04-26 12:44:02 51°18.004 2°52.447 10.1895 3.701189 33.526677 5.387571
2006-04-26 12:45:02 51°17.812 2°52.381 10.2135 3.704877 33.566853 5.320153
2006-04-26 12:46:02 51°17.613 2°52.36 10.2612 3.706035 33.539673 5.286443
2006-04-26 12:47:02 51°17.412 2°52.391 10.307 3.711303 33.555404 5.151606
2006-04-26 12:48:02 51°17.213 2°52.465 10.3519 3.717202 33.572256 5.117896
2006-04-26 12:49:02 51°17.016 2°52.565 10.322 3.723523 33.607474 5.084187
2006-04-26 12:50:02 51°16.821 2°52.686 10.3503 3.714147 33.541537 5.353862
2006-04-26 12:51:01 51°16.629 2°52.812 10.4547 3.712671 33.463572 5.623537
2006-04-26 12:52:01 51°16.438 2°52.949 10.6396 3.724996 33.476068 5.050477
2006-04-26 12:53:02 51°16.245 2°53.084 10.6215 3.69265 33.03462 5.252734
2006-04-26 12:54:02 51°16.051 2°53.205 10.5835 3.663363 32.780707 6.02805
2006-04-26 12:55:02 51°15.855 2°53.329 10.5489 3.646402 32.637793 7.073042
2006-04-26 12:56:02 51°15.657 2°53.452 10.625 3.638185 32.565334 8.050614
2006-04-26 12:57:02 51°15.517 2°53.666 10.7466 3.636394 32.47955 9.061896
2006-04-26 12:58:02 51°15.428 2°53.874 10.897 3.64503 32.426443 8.623674
2006-04-26 12:59:02 51°15.303 2°54.061 10.9637 3.661568 32.489949 9.061896
2006-04-26 13:00:02 51°15.143 2°54.249 11.0147 3.675263 32.557035 8.118033
2006-04-26 13:01:02 51°14.962 2°54.42 11.0473 3.690644 32.675967 7.410136
2006-04-26 13:02:02 51°14.78 2°54.553 11.0114 3.72067 32.974078 6.5674
2006-04-26 13:03:02 51°14.6 2°54.692 11.0825 3.730258 33.043541 6.196597
2006-04-26 13:04:02 51°14.445 2°54.906 11.1124 3.713822 32.856576 7.544973
2006-04-26 13:05:02 51°14.321 2°55.141 11.3841 3.688324 32.469834 9.533828
2006-04-26 13:06:02 51°14.228 2°55.322 11.6736 3.670729 32.238469 13.410409
2006-04-26 13:07:02 51°14.138 2°55.41 11.7013 3.672626 32.259772 12.80364
2006-04-26 13:08:02 51°14.054 2°55.47 11.7888 3.672099 32.249069 12.432836
2006-04-26 13:09:02 51°13.968 2°55.535 11.9122 3.671993 32.245263 12.163161
2006-04-26 13:10:02 51°13.859 2°55.612 12.0522 3.671783 32.23904 11.994614
2006-04-26 13:11:02 51°13.752 2°55.716 12.13 3.671783 32.236958 11.893486
2006-04-26 13:12:02 51°13.686 2°55.839 12.2364 3.671783 32.236264 11.859777
2006-04-26 13:13:02 51°13.647 2°55.934 12.3192 3.671783 32.236958 11.826067
2006-04-26 13:14:02 51°13.62 2°56.007 12.4217 3.671783 32.234876 11.859777
2006-04-26 13:15:02 51°13.607 2°56.066 12.5436 3.671888 32.23313 11.893486
2006-04-26 13:16:01 51°13.603 2°56.092 12.8012 3.672099 32.233105 11.893486
2006-04-26 13:17:01 51°13.602 2°56.098 12.9019 3.67252 32.233057 11.927195